Aérodrome :
LOGIN :

S'inscrire | Disclaimer

   EN    FR    IT 

 










Légende :    VFR   VFR Marginal   IFR   IFR Intensif   IFR Très Intensif
Visi : 
Plafond : 
>= 8 km
>= 3000ft
5 à 8 km
1000 à 3000 ft
1500m à 5 km
500 à 1000 ft
800 à 1500m
200 à 500 ft
< 800m
< 200 ft
Symboles :   Orages  Brouillard  Fortes neiges  Fortes précipitations  Vent > 20 kt
SIGMETs :   Divers  Orages  Givrage  Turbulence  Onde Orograph.  Cendres Volcan.







- Altitude de l'aérodrome : 20 ft


EBFN - Koksijde

DERNIER METAR :
  • 270355Z AUTO 30004KT 9999 SCT052/// BKN064/// 13/09 Q1011 BLU

METARs EXPIRÉS :
  • 270325Z AUTO 31004KT 9999 FEW048/// BKN062/// 12/09 Q1011 BLU
  • 270255Z AUTO 32005KT 9999 BKN043/// 13/09 Q1011 BLU
  • 270225Z AUTO 33006KT 9999 OVC041/// 14/09 Q1011 BLU
  • 270155Z AUTO 33006KT 9999 BKN041/// BKN074/// 13/09 Q1011 BLU
  • 270125Z AUTO 32007KT 9999 BKN041/// 14/11 Q1011 BLU

TAF TAF EBFN
Valide du 26 à 19h jusqu'au 27 à 07h UTC


261541Z 2619/2707 24017KT 9999 BKN012
TEMPO 2619/2623 6000 -RA BKN010
PROB30
TEMPO 2619/2623 3500 RADZ BKN006
BECMG 2623/2701 31007KT 9999 SCT030 SCT300
BECMG 2705/2707 27005KT
Pas de NOTAMs connus pour ce terrain.



MET'MAP, la Météo Aéronautique d'un coup d'oeil ! - Copyright ORBIFLY Décembre 2007 - Disclaimer

ORBIFLY MET'MAP TEAM :

Programmation & Développement : Alexandra Zaïnal
Conception & Développement : Baudouin d'Aumeries
Co-Programmation & Développement : Marc-Olivier Méhu
Soutien technique & logistique : Manuel Goepfert

Contact : metmap@orbifly.com




SOURCES & CREDITS :

   NOAA